Time;durP1;ratioP1;P1;durP2;ratioP2;P2;SDS_P1;SDS_P2;PMS_P1;PMS_P2;Temp;Humidity;BMP_temperature;BMP_pressure;BME280_temperature;BME280_humidity;BME280_pressure;Samples;Min_cycle;Max_cycle;Signal;HPM_P1;HPM_P2
2022/12/05 00:01:17;;;;;;;22.40;15.23;;;;;;;;;;5040850;28;20228;-66
2022/12/05 00:03:46;;;;;;;25.73;15.07;;;;;;;;;;5039478;28;20586;-66
2022/12/05 00:06:14;;;;;;;18.30;11.53;;;;;;;;;;5038562;28;20196;-66
2022/12/05 00:08:42;;;;;;;27.17;17.80;;;;;;;;;;5039429;28;20286;-66
2022/12/05 00:11:13;;;;;;;22.00;13.63;;;;;;;;;;5040535;28;20290;-66
2022/12/05 00:13:41;;;;;;;21.93;15.37;;;;;;;;;;5038679;28;20287;-66
2022/12/05 00:16:10;;;;;;;14.13;10.70;;;;;;;;;;5040399;28;20226;-66
2022/12/05 00:18:38;;;;;;;15.57;8.80;;;;;;;;;;5039308;28;20659;-66
2022/12/05 00:21:07;;;;;;;12.83;9.17;;;;;;;;;;5040100;28;20234;-66
2022/12/05 00:23:35;;;;;;;14.17;7.77;;;;;;;;;;5039092;28;20223;-66
2022/12/05 00:26:03;;;;;;;13.53;9.77;;;;;;;;;;5038999;28;20205;-66
2022/12/05 00:28:33;;;;;;;20.23;12.60;;;;;;;;;;5036099;28;20225;-66
2022/12/05 00:31:02;;;;;;;12.37;8.90;;;;;;;;;;5040384;28;20241;-66
2022/12/05 00:33:30;;;;;;;15.63;9.17;;;;;;;;;;5038996;28;20699;-66
2022/12/05 00:36:01;;;;;;;14.60;9.70;;;;;;;;;;5038904;28;20204;-67
2022/12/05 00:38:29;;;;;;;15.93;11.33;;;;;;;;;;5035192;28;20710;-66
2022/12/05 00:41:02;;;;;;;18.37;12.47;;;;;;;;;;5038680;28;20637;-66
2022/12/05 00:43:30;;;;;;;21.43;15.37;;;;;;;;;;5038468;28;20235;-66
2022/12/05 00:46:02;;;;;;;14.90;10.80;;;;;;;;;;5038897;28;20286;-66
2022/12/05 00:48:30;;;;;;;14.00;9.03;;;;;;;;;;5038371;28;20212;-67
2022/12/05 00:51:01;;;;;;;11.70;8.77;;;;;;;;;;5031187;28;20235;-67
2022/12/05 00:53:29;;;;;;;14.37;8.80;;;;;;;;;;5038323;28;20254;-66
2022/12/05 00:56:01;;;;;;;13.13;8.67;;;;;;;;;;5038764;28;20242;-66
2022/12/05 00:58:29;;;;;;;12.70;8.80;;;;;;;;;;5037212;28;20210;-66
2022/12/05 01:00:57;;;;;;;13.83;9.33;;;;;;;;;;5039633;28;20319;-66
2022/12/05 01:03:27;;;;;;;17.40;13.00;;;;;;;;;;5038398;28;20266;-66
2022/12/05 01:05:55;;;;;;;16.10;12.33;;;;;;;;;;5039408;28;20207;-66
2022/12/05 01:08:23;;;;;;;15.80;11.00;;;;;;;;;;5038495;28;20226;-66
2022/12/05 01:10:55;;;;;;;13.67;10.33;;;;;;;;;;5036940;28;20632;-67
2022/12/05 01:13:23;;;;;;;13.83;9.87;;;;;;;;;;5038079;28;20231;-66
2022/12/05 01:15:51;;;;;;;12.63;8.93;;;;;;;;;;5037682;28;20195;-66
2022/12/05 01:18:19;;;;;;;14.00;9.37;;;;;;;;;;5037791;28;20208;-66
2022/12/05 01:20:49;;;;;;;11.43;8.07;;;;;;;;;;5037953;28;20224;-66
2022/12/05 01:23:17;;;;;;;12.33;8.83;;;;;;;;;;5038288;28;20214;-66
2022/12/05 01:25:46;;;;;;;12.90;8.67;;;;;;;;;;5038957;28;20695;-66
2022/12/05 01:28:14;;;;;;;10.33;7.17;;;;;;;;;;5036917;28;20215;-66
2022/12/05 01:30:43;;;;;;;9.93;7.77;;;;;;;;;;5037981;28;20230;-66
2022/12/05 01:33:12;;;;;;;12.10;7.77;;;;;;;;;;5035818;28;20286;-66
2022/12/05 01:35:40;;;;;;;13.00;7.30;;;;;;;;;;5038841;28;20687;-66
2022/12/05 01:38:10;;;;;;;9.80;6.73;;;;;;;;;;5038018;28;20630;-66
2022/12/05 01:40:38;;;;;;;9.83;7.43;;;;;;;;;;5036451;28;20715;-66
2022/12/05 01:43:10;;;;;;;8.97;6.70;;;;;;;;;;5037083;28;20278;-66
2022/12/05 01:45:39;;;;;;;9.23;6.63;;;;;;;;;;5038117;28;20204;-66
2022/12/05 01:48:09;;;;;;;10.80;7.87;;;;;;;;;;5037598;28;20461;-66
2022/12/05 01:50:37;;;;;;;12.17;7.67;;;;;;;;;;5037182;28;21867;-67
2022/12/05 01:53:06;;;;;;;9.17;6.90;;;;;;;;;;5027409;28;20199;-67
2022/12/05 01:55:36;;;;;;;10.93;6.53;;;;;;;;;;5038756;28;20214;-66
2022/12/05 01:58:05;;;;;;;14.03;9.03;;;;;;;;;;5036094;28;20204;-66
2022/12/05 02:00:33;;;;;;;13.10;8.23;;;;;;;;;;5036843;28;20220;-66
2022/12/05 02:03:04;;;;;;;14.17;8.73;;;;;;;;;;5033115;28;20207;-66
2022/12/05 02:05:33;;;;;;;12.53;9.00;;;;;;;;;;5035679;28;20270;-65
2022/12/05 02:08:02;;;;;;;11.07;7.50;;;;;;;;;;5037457;28;20203;-66
2022/12/05 02:10:33;;;;;;;11.70;8.37;;;;;;;;;;5037264;28;20609;-66
2022/12/05 02:13:06;;;;;;;12.70;8.33;;;;;;;;;;5035981;28;20196;-66
2022/12/05 02:15:41;;;;;;;12.10;8.80;;;;;;;;;;5025690;28;20226;-66
2022/12/05 02:18:23;;;;;;;10.80;8.77;;;;;;;;;;5023739;28;20505;-66
2022/12/05 02:21:03;;;;;;;14.70;8.60;;;;;;;;;;5030704;28;20254;-65
2022/12/05 02:23:38;;;;;;;12.67;8.27;;;;;;;;;;5036071;28;20477;-66
2022/12/05 02:26:34;;;;;;;11.47;7.80;;;;;;;;;;5033017;28;20462;-66
2022/12/05 02:29:32;;;;;;;13.93;9.07;;;;;;;;;;5034992;28;20454;-66
2022/12/05 02:32:07;;;;;;;8.47;7.50;;;;;;;;;;4993025;28;20452;-65
2022/12/05 02:34:40;;;;;;;9.57;7.17;;;;;;;;;;5026732;28;20519;-65
2022/12/05 02:37:11;;;;;;;10.87;7.67;;;;;;;;;;5035377;28;20509;-65
2022/12/05 02:39:42;;;;;;;10.27;7.43;;;;;;;;;;5033269;28;20481;-65
2022/12/05 02:42:12;;;;;;;13.03;8.27;;;;;;;;;;5032168;28;20493;-65
2022/12/05 02:44:43;;;;;;;12.90;8.60;;;;;;;;;;5034594;28;20517;-66
2022/12/05 02:47:14;;;;;;;12.07;7.50;;;;;;;;;;5031352;28;20463;-66
2022/12/05 02:49:43;;;;;;;12.87;7.40;;;;;;;;;;5034894;28;20946;-66
2022/12/05 02:52:13;;;;;;;13.27;7.30;;;;;;;;;;5035996;28;20526;-66
2022/12/05 02:54:43;;;;;;;9.47;6.97;;;;;;;;;;5029042;28;20458;-65
2022/12/05 02:57:12;;;;;;;9.10;6.93;;;;;;;;;;5028496;28;20462;-66
2022/12/05 02:59:40;;;;;;;10.73;6.23;;;;;;;;;;5028736;28;20518;-66
2022/12/05 03:02:08;;;;;;;8.50;6.53;;;;;;;;;;5032014;28;20481;-66
2022/12/05 03:04:37;;;;;;;9.07;6.73;;;;;;;;;;5032061;28;20506;-65
2022/12/05 03:07:07;;;;;;;8.83;6.60;;;;;;;;;;5033207;28;20894;-66
2022/12/05 03:09:37;;;;;;;8.73;6.23;;;;;;;;;;5030967;28;20211;-65
2022/12/05 03:12:10;;;;;;;9.03;6.60;;;;;;;;;;5032033;28;20489;-66
2022/12/05 03:14:40;;;;;;;6.90;6.20;;;;;;;;;;5031615;28;20475;-66
2022/12/05 03:17:10;;;;;;;9.07;6.67;;;;;;;;;;5036429;28;20450;-66
2022/12/05 03:19:45;;;;;;;9.33;6.20;;;;;;;;;;5035154;28;20941;-65
2022/12/05 03:22:15;;;;;;;8.80;6.70;;;;;;;;;;5036179;28;20482;-66
2022/12/05 03:24:43;;;;;;;8.70;6.67;;;;;;;;;;5036374;28;20459;-65
2022/12/05 03:27:16;;;;;;;9.73;6.33;;;;;;;;;;5034162;28;20462;-67
2022/12/05 03:29:48;;;;;;;8.97;6.73;;;;;;;;;;5032457;28;20796;-66
2022/12/05 03:32:19;;;;;;;10.40;6.70;;;;;;;;;;5035998;28;20943;-66
2022/12/05 03:34:51;;;;;;;11.47;6.57;;;;;;;;;;5033596;28;20473;-66
2022/12/05 03:37:21;;;;;;;12.83;5.70;;;;;;;;;;5037468;28;20457;-65
2022/12/05 03:39:54;;;;;;;9.83;6.73;;;;;;;;;;5034123;28;20485;-66
2022/12/05 03:42:28;;;;;;;9.10;6.50;;;;;;;;;;5034488;28;20497;-65
2022/12/05 03:45:00;;;;;;;9.67;6.27;;;;;;;;;;5036896;28;20466;-65
2022/12/05 03:47:33;;;;;;;7.23;6.20;;;;;;;;;;5034549;28;20520;-66
2022/12/05 03:50:06;;;;;;;7.47;5.60;;;;;;;;;;5035396;28;20462;-65
2022/12/05 03:52:36;;;;;;;13.73;7.10;;;;;;;;;;5035425;28;20485;-65
2022/12/05 03:55:25;;;;;;;8.40;6.33;;;;;;;;;;5032121;28;20965;-66
2022/12/05 03:57:57;;;;;;;7.57;5.37;;;;;;;;;;5033634;28;20578;-66
2022/12/05 04:00:26;;;;;;;7.73;5.60;;;;;;;;;;5038538;28;20541;-66
2022/12/05 04:02:55;;;;;;;8.63;5.57;;;;;;;;;;5038416;28;20500;-66
2022/12/05 04:05:27;;;;;;;7.83;5.50;;;;;;;;;;5038583;28;20481;-66
2022/12/05 04:07:57;;;;;;;10.17;5.63;;;;;;;;;;5039681;28;20462;-65
2022/12/05 04:10:27;;;;;;;7.50;5.47;;;;;;;;;;5039676;28;20453;-66
2022/12/05 04:12:58;;;;;;;9.40;6.27;;;;;;;;;;5038837;28;20537;-66
2022/12/05 04:17:01;;;;;;;8.10;5.13;;;;;;;;;;5040084;28;20486;-66
2022/12/05 04:18:18;;;;;;;8.93;5.47;;;;;;;;;;5038870;28;20568;-65
2022/12/05 04:23:34;;;;;;;10.57;6.03;;;;;;;;;;5037306;28;20518;-66
2022/12/05 04:26:04;;;;;;;7.33;5.73;;;;;;;;;;5038547;28;20453;-66
2022/12/05 04:28:34;;;;;;;9.67;6.20;;;;;;;;;;5036770;28;20977;-66
2022/12/05 04:31:04;;;;;;;10.23;6.33;;;;;;;;;;5037326;28;20450;-66
2022/12/05 04:33:35;;;;;;;8.47;6.07;;;;;;;;;;5037065;28;20478;-65
2022/12/05 04:36:07;;;;;;;8.50;6.20;;;;;;;;;;5036928;28;20882;-66
2022/12/05 04:38:39;;;;;;;8.00;5.30;;;;;;;;;;5036754;28;20942;-66
2022/12/05 04:41:10;;;;;;;8.73;5.90;;;;;;;;;;5037582;28;20576;-66
2022/12/05 04:43:40;;;;;;;8.17;6.37;;;;;;;;;;5035493;28;20497;-65
2022/12/05 04:46:09;;;;;;;7.90;4.83;;;;;;;;;;5039798;28;20442;-66
2022/12/05 04:48:38;;;;;;;6.70;5.40;;;;;;;;;;5039083;28;20469;-66
2022/12/05 04:51:12;;;;;;;8.70;5.33;;;;;;;;;;5037843;28;20478;-65
2022/12/05 04:53:41;;;;;;;7.13;5.30;;;;;;;;;;5038395;28;20528;-65
2022/12/05 04:56:09;;;;;;;7.67;5.83;;;;;;;;;;5038006;28;20493;-65
2022/12/05 04:58:37;;;;;;;8.87;5.73;;;;;;;;;;5038644;28;20458;-66
2022/12/05 05:01:07;;;;;;;7.00;5.03;;;;;;;;;;5038647;28;20817;-65
2022/12/05 05:03:38;;;;;;;6.17;4.70;;;;;;;;;;5038063;28;20933;-65
2022/12/05 05:06:08;;;;;;;8.97;4.87;;;;;;;;;;5039430;28;20946;-65
2022/12/05 05:08:36;;;;;;;14.37;5.50;;;;;;;;;;5034764;28;20486;-65
2022/12/05 05:11:07;;;;;;;6.90;5.43;;;;;;;;;;5035375;28;20482;-66
2022/12/05 05:13:36;;;;;;;8.60;5.57;;;;;;;;;;5029477;28;20502;-65
2022/12/05 05:16:04;;;;;;;6.80;5.20;;;;;;;;;;5039406;28;20449;-66
2022/12/05 05:18:32;;;;;;;6.03;4.77;;;;;;;;;;5038478;28;20461;-65
2022/12/05 05:21:00;;;;;;;8.03;5.47;;;;;;;;;;5038237;28;20458;-65
2022/12/05 05:23:29;;;;;;;8.37;5.90;;;;;;;;;;5037804;28;20486;-65
2022/12/05 05:25:57;;;;;;;6.17;4.80;;;;;;;;;;5038093;28;20480;-66
2022/12/05 05:28:25;;;;;;;9.90;5.20;;;;;;;;;;5037543;28;20969;-66
2022/12/05 05:30:53;;;;;;;8.87;5.37;;;;;;;;;;5038880;28;21006;-65
2022/12/05 05:33:21;;;;;;;9.23;5.23;;;;;;;;;;5035854;28;20805;-65
2022/12/05 05:35:50;;;;;;;5.80;4.50;;;;;;;;;;5039435;28;20508;-65
2022/12/05 05:38:17;;;;;;;7.27;5.00;;;;;;;;;;5038504;28;20450;-65
2022/12/05 05:40:47;;;;;;;5.53;4.77;;;;;;;;;;5030945;28;20557;-65
2022/12/05 05:43:15;;;;;;;7.17;4.97;;;;;;;;;;5029974;28;20973;-66
2022/12/05 05:45:43;;;;;;;7.43;5.23;;;;;;;;;;5025768;28;20470;-65
2022/12/05 05:48:11;;;;;;;8.03;5.30;;;;;;;;;;5029582;28;20466;-66
2022/12/05 05:50:39;;;;;;;5.57;4.87;;;;;;;;;;5028942;28;20465;-65
2022/12/05 05:53:07;;;;;;;8.40;5.43;;;;;;;;;;5032673;28;20459;-65
2022/12/05 05:55:35;;;;;;;5.80;4.80;;;;;;;;;;5029051;28;20462;-65
2022/12/05 05:58:04;;;;;;;7.03;5.30;;;;;;;;;;5029781;28;20485;-66
2022/12/05 06:00:32;;;;;;;8.23;5.73;;;;;;;;;;5029596;28;20485;-65
2022/12/05 06:03:01;;;;;;;6.60;5.07;;;;;;;;;;5031906;28;20482;-65
2022/12/05 06:05:29;;;;;;;7.53;5.53;;;;;;;;;;5028429;28;20500;-65
2022/12/05 06:07:57;;;;;;;6.83;5.17;;;;;;;;;;5032857;28;20459;-65
2022/12/05 06:10:25;;;;;;;6.63;4.80;;;;;;;;;;5033421;28;21060;-65
2022/12/05 06:12:53;;;;;;;8.83;5.20;;;;;;;;;;5035705;28;21016;-66
2022/12/05 06:15:23;;;;;;;7.07;5.40;;;;;;;;;;5037213;28;20485;-66
2022/12/05 06:17:51;;;;;;;6.30;4.57;;;;;;;;;;5037587;28;20485;-66
2022/12/05 06:20:19;;;;;;;6.73;5.10;;;;;;;;;;5038176;28;20457;-66
2022/12/05 06:22:47;;;;;;;8.33;5.27;;;;;;;;;;5036907;28;20544;-67
2022/12/05 06:25:15;;;;;;;8.93;5.43;;;;;;;;;;5035709;28;20513;-67
2022/12/05 06:27:43;;;;;;;7.20;4.90;;;;;;;;;;5035630;28;20480;-66
2022/12/05 06:30:11;;;;;;;7.63;5.57;;;;;;;;;;5033096;28;20466;-66
2022/12/05 06:32:40;;;;;;;8.00;5.23;;;;;;;;;;5031908;28;20569;-66
2022/12/05 06:35:14;;;;;;;11.97;5.27;;;;;;;;;;5038154;28;20505;-66
2022/12/05 06:37:42;;;;;;;7.00;5.33;;;;;;;;;;5036084;28;20465;-66
2022/12/05 06:40:11;;;;;;;6.83;5.90;;;;;;;;;;5036797;28;20462;-68
2022/12/05 06:42:39;;;;;;;8.63;5.80;;;;;;;;;;5036236;28;21020;-66
2022/12/05 06:45:07;;;;;;;8.50;5.80;;;;;;;;;;5036439;28;20501;-66
2022/12/05 06:47:35;;;;;;;11.63;5.67;;;;;;;;;;5028465;28;20459;-64
2022/12/05 06:50:05;;;;;;;8.67;6.07;;;;;;;;;;5027680;28;20439;-63
2022/12/05 06:52:33;;;;;;;8.43;5.70;;;;;;;;;;5029066;28;20458;-64
2022/12/05 06:55:01;;;;;;;9.33;6.30;;;;;;;;;;5027155;28;20503;-65
2022/12/05 06:57:29;;;;;;;8.20;6.17;;;;;;;;;;5031380;28;20517;-64
2022/12/05 07:01:37;;;;;;;7.13;5.43;;;;;;;;;;5031792;28;20827;-65
2022/12/05 07:02:51;;;;;;;9.00;6.27;;;;;;;;;;5028724;28;20525;-65
2022/12/05 07:05:24;;;;;;;11.10;6.17;;;;;;;;;;5025880;28;20485;-65
2022/12/05 07:07:52;;;;;;;8.03;6.53;;;;;;;;;;5022574;28;20469;-64
2022/12/05 07:10:21;;;;;;;8.90;5.60;;;;;;;;;;5028062;28;20541;-64
2022/12/05 07:12:49;;;;;;;10.07;6.97;;;;;;;;;;5025803;28;20454;-65
2022/12/05 07:15:17;;;;;;;6.60;5.63;;;;;;;;;;5024653;28;20948;-65
2022/12/05 07:17:45;;;;;;;7.27;6.17;;;;;;;;;;5024211;28;20537;-65
2022/12/05 07:20:16;;;;;;;7.63;5.43;;;;;;;;;;5024713;28;20462;-65
2022/12/05 07:22:46;;;;;;;8.33;6.63;;;;;;;;;;5024580;28;20499;-64
2022/12/05 07:25:14;;;;;;;7.00;5.93;;;;;;;;;;5023206;28;20478;-64
2022/12/05 07:27:41;;;;;;;9.17;5.60;;;;;;;;;;5024551;28;20450;-63
2022/12/05 07:30:10;;;;;;;7.80;5.80;;;;;;;;;;5023434;28;20458;-64
2022/12/05 07:32:38;;;;;;;8.47;5.07;;;;;;;;;;5028852;28;20466;-64
2022/12/05 07:35:06;;;;;;;7.23;5.47;;;;;;;;;;5026528;28;20549;-64
2022/12/05 07:37:34;;;;;;;7.97;5.50;;;;;;;;;;5025606;28;20461;-64
2022/12/05 07:40:05;;;;;;;7.13;5.00;;;;;;;;;;5029551;28;20489;-64
2022/12/05 07:42:33;;;;;;;6.70;5.37;;;;;;;;;;5028366;28;20599;-63
2022/12/05 07:45:01;;;;;;;6.30;4.53;;;;;;;;;;5027139;28;20494;-63
2022/12/05 07:47:30;;;;;;;10.23;5.67;;;;;;;;;;5027989;28;20482;-63
2022/12/05 07:49:58;;;;;;;7.03;5.63;;;;;;;;;;5029212;28;20454;-63
2022/12/05 07:52:27;;;;;;;10.37;5.07;;;;;;;;;;5027400;28;20482;-63
2022/12/05 07:54:55;;;;;;;11.37;5.23;;;;;;;;;;5030994;28;20501;-63
2022/12/05 07:57:24;;;;;;;6.60;5.73;;;;;;;;;;5033591;28;20458;-62
2022/12/05 07:59:52;;;;;;;7.00;4.73;;;;;;;;;;5035698;28;20881;-62
2022/12/05 08:02:20;;;;;;;9.70;5.17;;;;;;;;;;5037712;28;20458;-62
2022/12/05 08:04:48;;;;;;;5.77;5.27;;;;;;;;;;5039471;28;20508;-62
2022/12/05 08:07:16;;;;;;;6.63;5.03;;;;;;;;;;5040013;28;20465;-62
2022/12/05 08:09:44;;;;;;;10.63;5.63;;;;;;;;;;5039309;28;20954;-62
2022/12/05 08:12:12;;;;;;;7.80;5.60;;;;;;;;;;5039016;28;20489;-62
2022/12/05 08:14:42;;;;;;;6.10;5.27;;;;;;;;;;5040101;28;20973;-62
2022/12/05 08:17:10;;;;;;;9.43;6.20;;;;;;;;;;5039231;28;20457;-62
2022/12/05 08:19:38;;;;;;;8.70;5.93;;;;;;;;;;5040676;28;20446;-62
2022/12/05 08:22:06;;;;;;;7.27;5.93;;;;;;;;;;5038068;28;20463;-62
2022/12/05 08:24:34;;;;;;;7.50;5.83;;;;;;;;;;5035839;28;20486;-63
2022/12/05 08:27:04;;;;;;;11.03;6.97;;;;;;;;;;5035252;28;20601;-62
2022/12/05 08:29:32;;;;;;;8.70;5.73;;;;;;;;;;5033240;28;20466;-62
2022/12/05 08:32:02;;;;;;;7.87;6.00;;;;;;;;;;5036634;28;20486;-62
2022/12/05 08:34:30;;;;;;;11.13;6.33;;;;;;;;;;5033112;28;20465;-62
2022/12/05 08:36:58;;;;;;;11.57;6.67;;;;;;;;;;5034519;28;20542;-62
2022/12/05 08:39:26;;;;;;;7.97;6.40;;;;;;;;;;5038277;28;20895;-62
2022/12/05 08:41:54;;;;;;;9.13;6.53;;;;;;;;;;5035800;28;20997;-62
2022/12/05 08:44:22;;;;;;;7.63;5.80;;;;;;;;;;5032872;28;20482;-62
2022/12/05 08:46:50;;;;;;;9.73;6.57;;;;;;;;;;5031742;28;20446;-62
2022/12/05 08:49:19;;;;;;;13.57;7.50;;;;;;;;;;5031066;28;20451;-62
2022/12/05 08:51:47;;;;;;;9.77;6.93;;;;;;;;;;5032749;28;20469;-62
2022/12/05 08:54:15;;;;;;;9.67;6.93;;;;;;;;;;5033672;28;20969;-62
2022/12/05 08:56:43;;;;;;;11.27;8.40;;;;;;;;;;5031223;28;20465;-62
2022/12/05 08:59:11;;;;;;;9.93;7.27;;;;;;;;;;5031792;28;20822;-62
2022/12/05 09:01:40;;;;;;;9.60;6.67;;;;;;;;;;5028354;28;20486;-62
2022/12/05 09:04:09;;;;;;;8.53;6.27;;;;;;;;;;5030691;28;20478;-62
2022/12/05 09:06:39;;;;;;;10.17;6.10;;;;;;;;;;5030991;28;20481;-62
2022/12/05 09:09:10;;;;;;;11.30;7.33;;;;;;;;;;5031345;28;20953;-62
2022/12/05 09:11:42;;;;;;;12.80;6.57;;;;;;;;;;5032356;28;20453;-63
2022/12/05 09:14:10;;;;;;;11.50;6.10;;;;;;;;;;5036171;28;20654;-62
2022/12/05 09:16:38;;;;;;;12.30;7.17;;;;;;;;;;5034038;28;20454;-62
2022/12/05 09:19:10;;;;;;;11.60;6.40;;;;;;;;;;5032403;28;20881;-62
2022/12/05 09:21:40;;;;;;;10.63;7.47;;;;;;;;;;5034236;28;20279;-62
2022/12/05 09:24:09;;;;;;;10.90;7.40;;;;;;;;;;5039217;28;20486;-62
2022/12/05 09:26:37;;;;;;;10.00;7.47;;;;;;;;;;5035349;28;20508;-62
2022/12/05 09:29:05;;;;;;;10.47;7.40;;;;;;;;;;5036976;28;20211;-62
2022/12/05 09:31:41;;;;;;;15.17;7.53;;;;;;;;;;5034984;28;20302;-63
2022/12/05 09:34:12;;;;;;;9.97;7.23;;;;;;;;;;5031143;28;20311;-62
2022/12/05 09:36:42;;;;;;;12.77;7.90;;;;;;;;;;5037348;28;20447;-63
2022/12/05 09:39:10;;;;;;;13.50;8.47;;;;;;;;;;5031091;28;20200;-62
2022/12/05 09:42:06;;;;;;;18.10;7.97;;;;;;;;;;5035769;28;20227;-62
2022/12/05 09:44:41;;;;;;;13.40;7.87;;;;;;;;;;5031266;28;20340;-63
2022/12/05 09:47:13;;;;;;;10.30;7.67;;;;;;;;;;5030905;28;20201;-62
2022/12/05 09:49:46;;;;;;;11.13;7.33;;;;;;;;;;5035977;28;20210;-62
2022/12/05 09:52:22;;;;;;;14.67;8.10;;;;;;;;;;5038769;28;20223;-63
2022/12/05 09:54:52;;;;;;;11.40;8.13;;;;;;;;;;5032706;28;20221;-63
2022/12/05 09:57:24;;;;;;;14.43;7.90;;;;;;;;;;5038003;28;20261;-63
2022/12/05 10:00:00;;;;;;;12.40;8.00;;;;;;;;;;5034931;28;20298;-63
2022/12/05 10:02:32;;;;;;;12.73;7.37;;;;;;;;;;5033886;28;20208;-62
2022/12/05 10:05:03;;;;;;;14.47;8.00;;;;;;;;;;5035371;28;20501;-62
2022/12/05 10:07:37;;;;;;;8.53;7.30;;;;;;;;;;5036390;28;20446;-62
2022/12/05 10:10:15;;;;;;;9.60;5.93;;;;;;;;;;5035246;28;20454;-62
2022/12/05 10:12:51;;;;;;;13.27;8.97;;;;;;;;;;5036385;28;20529;-63
2022/12/05 10:15:23;;;;;;;22.17;8.63;;;;;;;;;;5035291;28;20478;-63
2022/12/05 10:17:54;;;;;;;17.07;8.87;;;;;;;;;;5037417;28;20525;-63
2022/12/05 10:20:24;;;;;;;14.27;8.57;;;;;;;;;;5033871;28;20796;-63
2022/12/05 10:22:55;;;;;;;20.00;8.60;;;;;;;;;;5029651;28;20211;-63
2022/12/05 10:25:25;;;;;;;16.47;9.50;;;;;;;;;;5037081;28;20706;-63
2022/12/05 10:27:54;;;;;;;17.53;9.40;;;;;;;;;;5036414;28;20652;-63
2022/12/05 10:30:23;;;;;;;15.80;8.27;;;;;;;;;;5035752;28;20203;-63
2022/12/05 10:32:53;;;;;;;15.23;8.63;;;;;;;;;;5035002;28;20227;-63
2022/12/05 10:35:22;;;;;;;19.90;8.50;;;;;;;;;;5031106;28;20283;-63
2022/12/05 10:37:52;;;;;;;16.80;8.67;;;;;;;;;;5033976;28;20283;-63
2022/12/05 10:40:22;;;;;;;13.20;7.83;;;;;;;;;;5026552;28;20230;-63
2022/12/05 10:42:50;;;;;;;10.17;7.17;;;;;;;;;;5030415;28;20200;-63
2022/12/05 10:45:21;;;;;;;15.33;8.13;;;;;;;;;;5031870;28;20318;-61
2022/12/05 10:47:49;;;;;;;11.53;7.80;;;;;;;;;;5030422;28;20263;-63
2022/12/05 10:53:41;;;;;;;14.17;8.40;;;;;;;;;;5025562;28;20287;-62
2022/12/05 10:56:28;;;;;;;10.67;8.23;;;;;;;;;;5025668;28;20227;-62
2022/12/05 10:58:59;;;;;;;12.73;8.23;;;;;;;;;;5031947;28;20291;-61
2022/12/05 11:01:27;;;;;;;17.70;9.97;;;;;;;;;;5034835;28;20306;-63
2022/12/05 11:03:58;;;;;;;14.70;9.10;;;;;;;;;;5036227;28;20224;-62
2022/12/05 11:06:27;;;;;;;12.10;7.60;;;;;;;;;;5037179;28;20672;-62
2022/12/05 11:08:56;;;;;;;13.60;8.10;;;;;;;;;;5036534;28;20208;-62
2022/12/05 11:11:33;;;;;;;13.40;8.57;;;;;;;;;;5036788;28;20282;-62
2022/12/05 11:14:05;;;;;;;13.97;8.33;;;;;;;;;;5036407;28;20230;-62
2022/12/05 11:16:34;;;;;;;12.67;7.87;;;;;;;;;;5036625;28;20220;-62
2022/12/05 11:19:18;;;;;;;15.03;7.10;;;;;;;;;;5032152;28;20698;-63
2022/12/05 11:21:46;;;;;;;12.40;7.43;;;;;;;;;;5037292;28;20286;-65
2022/12/05 11:24:21;;;;;;;14.57;7.97;;;;;;;;;;5033188;28;20248;-63
2022/12/05 11:26:49;;;;;;;13.20;7.70;;;;;;;;;;5030129;28;20219;-64
2022/12/05 11:29:33;;;;;;;9.73;6.50;;;;;;;;;;5033685;28;20200;-64
2022/12/05 11:32:02;;;;;;;9.40;6.47;;;;;;;;;;5028949;28;20644;-64
2022/12/05 11:34:33;;;;;;;10.07;7.30;;;;;;;;;;5035877;28;20251;-63
2022/12/05 11:37:03;;;;;;;8.93;6.93;;;;;;;;;;5038600;28;20200;-64
2022/12/05 11:39:31;;;;;;;14.03;7.70;;;;;;;;;;5038341;28;20203;-64
2022/12/05 11:42:06;;;;;;;10.30;7.67;;;;;;;;;;5040383;28;20715;-64
2022/12/05 11:44:49;;;;;;;12.37;7.80;;;;;;;;;;5038045;28;20215;-64
2022/12/05 11:47:23;;;;;;;12.13;7.77;;;;;;;;;;5039207;28;20270;-65
2022/12/05 11:50:02;;;;;;;12.10;7.70;;;;;;;;;;5039780;28;20195;-65
2022/12/05 11:52:36;;;;;;;15.30;7.23;;;;;;;;;;5039486;28;20620;-65
2022/12/05 11:55:12;;;;;;;9.80;6.93;;;;;;;;;;5039959;28;20231;-64
2022/12/05 11:58:01;;;;;;;10.97;7.70;;;;;;;;;;5040599;28;20207;-64
2022/12/05 12:00:33;;;;;;;10.97;7.60;;;;;;;;;;5034920;28;20283;-65
2022/12/05 12:03:22;;;;;;;14.63;8.53;;;;;;;;;;5038721;28;20211;-65
2022/12/05 12:06:07;;;;;;;13.60;7.27;;;;;;;;;;5031822;28;20310;-65
2022/12/05 12:08:44;;;;;;;12.17;7.97;;;;;;;;;;5038846;28;20214;-65
2022/12/05 12:11:19;;;;;;;11.93;7.57;;;;;;;;;;5039943;28;20294;-65
2022/12/05 12:13:54;;;;;;;11.40;7.73;;;;;;;;;;5039199;28;20335;-65
2022/12/05 12:16:26;;;;;;;9.50;6.97;;;;;;;;;;5039490;28;20563;-65
2022/12/05 12:19:02;;;;;;;11.93;7.20;;;;;;;;;;5028883;28;20199;-65
2022/12/05 12:21:38;;;;;;;9.63;7.03;;;;;;;;;;5039253;28;20214;-65
2022/12/05 12:24:10;;;;;;;9.90;7.47;;;;;;;;;;5039226;28;20245;-65
2022/12/05 12:26:44;;;;;;;11.90;8.10;;;;;;;;;;5036811;28;20262;-65
2022/12/05 12:29:17;;;;;;;14.03;7.60;;;;;;;;;;5036614;28;20286;-65
2022/12/05 12:31:55;;;;;;;8.03;5.03;;;;;;;;;;5040111;28;20682;-65
2022/12/05 12:34:34;;;;;;;10.37;6.07;;;;;;;;;;5039286;28;20220;-65
2022/12/05 12:37:08;;;;;;;8.90;6.47;;;;;;;;;;5039005;28;20199;-65
2022/12/05 12:39:44;;;;;;;9.37;5.60;;;;;;;;;;5039368;28;20204;-65
2022/12/05 12:42:18;;;;;;;8.60;5.30;;;;;;;;;;5039180;28;20302;-65
2022/12/05 12:45:04;;;;;;;6.33;5.40;;;;;;;;;;5037567;28;20707;-65
2022/12/05 12:47:38;;;;;;;9.60;5.30;;;;;;;;;;5024090;28;20311;-66
2022/12/05 12:50:13;;;;;;;8.20;6.10;;;;;;;;;;5029050;28;20569;-65
2022/12/05 12:52:53;;;;;;;9.60;6.40;;;;;;;;;;5039791;28;20249;-65
2022/12/05 12:55:24;;;;;;;11.23;7.37;;;;;;;;;;5037975;28;20223;-63
2022/12/05 12:57:59;;;;;;;14.93;8.93;;;;;;;;;;5037584;28;20192;-63
2022/12/05 13:00:31;;;;;;;17.67;7.63;;;;;;;;;;5038495;28;20210;-65
2022/12/05 13:03:03;;;;;;;10.77;7.10;;;;;;;;;;5038512;28;20196;-65
2022/12/05 13:05:33;;;;;;;9.23;6.47;;;;;;;;;;5037226;28;20219;-65
2022/12/05 13:08:05;;;;;;;11.73;7.33;;;;;;;;;;5038224;28;20663;-65
2022/12/05 13:10:35;;;;;;;7.50;6.30;;;;;;;;;;5038418;28;20218;-65
2022/12/05 13:13:04;;;;;;;11.33;6.93;;;;;;;;;;5037845;28;20234;-64
2022/12/05 13:15:34;;;;;;;11.63;6.20;;;;;;;;;;5037968;28;20199;-65
2022/12/05 13:18:05;;;;;;;10.00;5.77;;;;;;;;;;5038277;28;20204;-65
2022/12/05 13:20:35;;;;;;;8.63;5.83;;;;;;;;;;5035252;28;20243;-65
2022/12/05 13:23:06;;;;;;;7.30;6.40;;;;;;;;;;5038101;28;20242;-65
2022/12/05 13:25:37;;;;;;;8.70;6.17;;;;;;;;;;5038238;28;20235;-65
2022/12/05 13:28:08;;;;;;;7.93;6.07;;;;;;;;;;5037855;28;20334;-65
2022/12/05 13:30:56;;;;;;;9.63;6.80;;;;;;;;;;5038167;28;20299;-65
2022/12/05 13:33:26;;;;;;;8.87;6.97;;;;;;;;;;5036398;28;20634;-65
2022/12/05 13:44:29;;;;;;;12.43;8.23;;;;;;;;;;5036916;28;20224;-65
2022/12/05 13:46:57;;;;;;;11.63;7.90;;;;;;;;;;5038710;28;20231;-65
2022/12/05 13:49:30;;;;;;;14.63;8.17;;;;;;;;;;5036330;28;20204;-65
2022/12/05 13:52:04;;;;;;;10.57;7.43;;;;;;;;;;5037595;28;20666;-65
2022/12/05 13:54:35;;;;;;;12.90;8.47;;;;;;;;;;5035393;28;20698;-65
2022/12/05 13:57:04;;;;;;;8.27;6.40;;;;;;;;;;5038092;28;20207;-64
2022/12/05 13:59:51;;;;;;;8.83;6.53;;;;;;;;;;5036139;28;20203;-65
2022/12/05 14:02:44;;;;;;;9.00;7.10;;;;;;;;;;5038583;28;20246;-65
2022/12/05 14:05:27;;;;;;;9.93;7.33;;;;;;;;;;5023670;28;20224;-65
2022/12/05 14:07:55;;;;;;;10.70;7.80;;;;;;;;;;5036882;28;20227;-65
2022/12/05 14:10:45;;;;;;;13.10;7.20;;;;;;;;;;5035939;28;20199;-65
2022/12/05 14:13:28;;;;;;;16.57;8.13;;;;;;;;;;5036638;28;20616;-65
2022/12/05 14:16:18;;;;;;;8.63;6.83;;;;;;;;;;5034204;28;20571;-65
2022/12/05 14:18:49;;;;;;;9.80;7.20;;;;;;;;;;5036865;28;20210;-64
2022/12/05 14:21:20;;;;;;;11.83;6.47;;;;;;;;;;5035440;28;20259;-65
2022/12/05 14:23:55;;;;;;;9.27;6.33;;;;;;;;;;5033041;28;20230;-65
2022/12/05 14:26:31;;;;;;;8.60;6.63;;;;;;;;;;5032397;28;20678;-65
2022/12/05 14:29:04;;;;;;;9.10;6.93;;;;;;;;;;5033862;28;20217;-65
2022/12/05 14:31:41;;;;;;;8.70;7.27;;;;;;;;;;5035743;28;20195;-65
2022/12/05 14:34:23;;;;;;;10.53;7.17;;;;;;;;;;5036995;28;20310;-65
2022/12/05 14:36:52;;;;;;;10.90;6.67;;;;;;;;;;5036750;28;20204;-65
2022/12/05 14:39:22;;;;;;;9.37;6.17;;;;;;;;;;5037597;28;20271;-65
2022/12/05 14:41:56;;;;;;;10.03;6.23;;;;;;;;;;5037061;28;20235;-65
2022/12/05 14:44:29;;;;;;;10.17;5.70;;;;;;;;;;5036496;28;20686;-65
2022/12/05 14:47:01;;;;;;;10.77;6.30;;;;;;;;;;5037675;28;20234;-65
2022/12/05 14:49:50;;;;;;;9.87;5.97;;;;;;;;;;5037635;28;20208;-64
2022/12/05 14:52:22;;;;;;;9.77;6.23;;;;;;;;;;5038013;28;20218;-65
2022/12/05 14:54:51;;;;;;;7.77;5.73;;;;;;;;;;5025053;28;20255;-65
2022/12/05 14:57:19;;;;;;;7.70;5.10;;;;;;;;;;5034426;28;20200;-65
2022/12/05 14:59:50;;;;;;;8.13;5.30;;;;;;;;;;5036428;28;20253;-65
2022/12/05 15:02:22;;;;;;;8.67;6.30;;;;;;;;;;5036697;28;20211;-67
2022/12/05 15:04:52;;;;;;;6.50;5.47;;;;;;;;;;5029354;28;20227;-65
2022/12/05 15:07:22;;;;;;;7.37;5.60;;;;;;;;;;5035619;28;20246;-65
2022/12/05 15:09:55;;;;;;;5.83;5.03;;;;;;;;;;5036935;28;20203;-65
2022/12/05 15:12:25;;;;;;;7.43;5.77;;;;;;;;;;5040375;28;20234;-65
2022/12/05 15:14:56;;;;;;;8.67;5.20;;;;;;;;;;5040379;28;20646;-65